Time;durP1;ratioP1;P1;durP2;ratioP2;P2;SDS_P1;SDS_P2;PMS_P1;PMS_P2;Temp;Humidity;BMP_temperature;BMP_pressure;BME280_temperature;BME280_humidity;BME280_pressure;Samples;Min_cycle;Max_cycle;Signal;HPM_P1;HPM_P2
2022/11/26 00:09:20;;;;;;;32.40;18.80;;;;;;;21.03;53.47;101089.34;20642930;28;20046;-81
2022/11/26 00:19:20;;;;;;;28.27;18.15;;;;;;;21.03;53.51;101087.56;20645634;28;20046;-78
2022/11/26 00:29:20;;;;;;;29.35;18.05;;;;;;;20.98;53.59;101081.72;20635775;28;21063;-77
2022/11/26 00:39:23;;;;;;;27.15;17.20;;;;;;;20.95;54.21;101076.69;20642890;28;20045;-79
2022/11/26 00:49:23;;;;;;;26.70;16.03;;;;;;;20.94;54.21;101090.78;20642994;28;20038;-80
2022/11/26 00:59:23;;;;;;;34.13;15.65;;;;;;;20.91;54.13;101099.72;20644619;28;20076;-80
2022/11/26 01:09:24;;;;;;;23.65;15.48;;;;;;;20.90;54.04;101105.09;20640534;28;20046;-80
2022/11/26 01:19:24;;;;;;;26.10;16.10;;;;;;;20.88;53.99;101096.44;20647717;28;20042;-78
2022/11/26 01:29:25;;;;;;;21.23;13.82;;;;;;;20.91;53.87;101090.97;20644878;28;20038;-80
2022/11/26 01:39:25;;;;;;;24.33;14.77;;;;;;;20.86;54.20;101107.09;20658864;28;20117;-78
2022/11/26 01:49:30;;;;;;;22.45;14.25;;;;;;;20.88;53.78;101106.97;20639193;28;20046;-81
2022/11/26 01:59:38;;;;;;;20.13;13.30;;;;;;;20.87;53.72;101105.28;20646090;28;20686;-81
2022/11/26 02:09:39;;;;;;;21.67;13.82;;;;;;;20.83;53.35;101107.28;20609110;28;20396;-79
2022/11/26 02:20:10;;;;;;;21.13;13.50;;;;;;;20.79;53.54;101105.78;20656192;28;20192;-80
2022/11/26 02:30:12;;;;;;;19.27;12.88;;;;;;;20.77;53.69;101121.66;20651005;28;20042;-81
2022/11/26 02:40:13;;;;;;;20.38;12.13;;;;;;;20.69;54.00;101120.44;20638299;28;20129;-80
2022/11/26 02:51:04;;;;;;;15.98;11.23;;;;;;;20.74;53.87;101126.31;20633815;28;20043;-79
2022/11/26 03:01:54;;;;;;;17.60;11.48;;;;;;;20.73;53.34;101135.13;20630550;28;20042;-81
2022/11/26 03:11:54;;;;;;;17.25;11.45;;;;;;;20.66;53.40;101136.44;20560011;28;20039;-80
2022/11/26 03:21:54;;;;;;;15.88;11.00;;;;;;;20.64;53.45;101149.66;20638773;28;20523;-78
2022/11/26 03:31:55;;;;;;;17.63;11.30;;;;;;;20.66;53.35;101141.69;20631594;28;20130;-80
2022/11/26 03:41:55;;;;;;;16.70;10.90;;;;;;;20.64;53.21;101153.16;20630454;28;20089;-80
2022/11/26 03:51:56;;;;;;;14.95;10.32;;;;;;;20.61;53.37;101176.19;20647718;28;20054;-80
2022/11/26 04:01:56;;;;;;;13.40;9.35;;;;;;;20.60;53.63;101183.25;20637103;28;20046;-80
2022/11/26 04:11:56;;;;;;;13.93;9.60;;;;;;;20.58;53.40;101181.63;20646865;28;20050;-80
2022/11/26 04:21:57;;;;;;;14.52;9.60;;;;;;;20.60;53.56;101200.81;20625122;28;20061;-79
2022/11/26 04:31:57;;;;;;;13.82;9.65;;;;;;;20.57;53.20;101198.38;20651005;28;20575;-79
2022/11/26 04:41:58;;;;;;;12.98;8.70;;;;;;;20.53;53.30;101210.00;20641542;28;20042;-81
2022/11/26 04:51:58;;;;;;;15.07;9.02;;;;;;;20.53;53.33;101215.28;20647722;28;20046;-80
2022/11/26 05:01:59;;;;;;;12.88;8.85;;;;;;;20.52;53.42;101232.88;20630780;28;20374;-80
2022/11/26 05:11:59;;;;;;;13.75;8.60;;;;;;;20.44;53.23;101248.25;20650491;28;20045;-79
2022/11/26 05:21:59;;;;;;;12.02;8.43;;;;;;;20.40;53.48;101258.13;20660800;28;20042;-80
2022/11/26 05:32:00;;;;;;;12.80;7.80;;;;;;;20.41;53.45;101253.69;20660968;28;20134;-79
2022/11/26 05:42:00;;;;;;;11.35;7.80;;;;;;;20.40;53.66;101275.72;20651065;28;20046;-79
2022/11/26 05:52:01;;;;;;;11.80;8.07;;;;;;;20.33;53.34;101275.22;20660420;28;20057;-79
2022/11/26 06:02:01;;;;;;;11.18;7.80;;;;;;;20.31;53.74;101290.22;20658915;28;20034;-78
2022/11/26 06:12:02;;;;;;;11.73;7.65;;;;;;;20.34;54.15;101299.75;20643400;28;20069;-79
2022/11/26 06:22:02;;;;;;;11.13;7.80;;;;;;;20.39;54.49;101295.88;20624295;28;20500;-77
2022/11/26 06:32:16;;;;;;;13.93;7.38;;;;;;;20.52;55.29;101316.19;20628973;28;20155;-79
2022/11/26 06:42:17;;;;;;;11.40;7.80;;;;;;;20.67;55.03;101325.81;20628119;28;20049;-78
2022/11/26 06:52:17;;;;;;;12.02;7.35;;;;;;;20.79;55.14;101324.25;20710652;28;20053;-80
2022/11/26 07:02:23;;;;;;;14.23;8.73;;;;;;;20.87;54.10;101329.03;20698219;28;20123;-84
2022/11/26 07:12:23;;;;;;;14.73;8.52;;;;;;;20.95;54.41;101338.16;20688730;28;20073;-76
2022/11/26 07:22:24;;;;;;;15.57;8.02;;;;;;;21.02;54.50;101345.69;20671435;28;1092369;-85
2022/11/26 07:32:25;;;;;;;17.75;8.68;;;;;;;21.02;53.32;101348.31;20699243;28;20037;-86
2022/11/26 07:42:29;;;;;;;13.10;8.65;;;;;;;21.07;52.50;101352.38;20687784;28;20138;-83
2022/11/26 07:52:29;;;;;;;16.95;8.18;;;;;;;21.18;54.21;101350.84;20667462;28;20046;-82
2022/11/26 08:02:30;;;;;;;11.85;7.50;;;;;;;21.28;55.10;101365.16;20697231;28;20041;-82
2022/11/26 08:12:31;;;;;;;14.02;7.30;;;;;;;21.32;55.60;101378.97;20698218;28;20042;-82
2022/11/26 08:22:31;;;;;;;13.65;7.93;;;;;;;21.38;54.66;101382.06;20698561;28;20191;-85
2022/11/26 08:32:33;;;;;;;20.48;8.95;;;;;;;21.44;53.53;101380.84;20688379;28;20253;-77
2022/11/26 08:42:33;;;;;;;17.90;9.52;;;;;;;21.39;51.94;101409.28;20685551;28;20092;-78
2022/11/26 08:52:34;;;;;;;20.58;9.90;;;;;;;21.44;51.67;101415.94;20687376;28;20050;-81
2022/11/26 09:02:34;;;;;;;15.93;9.40;;;;;;;21.47;52.15;101420.19;20696442;28;20038;-79
2022/11/26 09:12:36;;;;;;;12.57;7.78;;;;;;;21.50;52.07;101432.31;20705624;28;20648;-80
2022/11/26 09:22:36;;;;;;;15.75;8.35;;;;;;;21.50;52.15;101434.94;20691621;28;20371;-81
2022/11/26 09:32:37;;;;;;;12.23;7.97;;;;;;;21.51;52.13;101448.03;20706855;28;20046;-78
2022/11/26 09:43:17;;;;;;;14.10;8.07;;;;;;;21.54;50.96;101436.44;20693504;28;20084;-75
2022/11/26 09:53:26;;;;;;;14.40;7.78;;;;;;;21.52;51.41;101438.31;20684925;28;20057;-80
2022/11/26 10:03:33;;;;;;;15.07;8.70;;;;;;;21.50;50.92;101437.59;20720740;28;20042;-79
2022/11/26 10:14:18;;;;;;;15.43;9.63;;;;;;;21.52;50.58;101435.69;20718161;28;20457;-76
2022/11/26 10:24:49;;;;;;;16.38;10.45;;;;;;;21.51;50.72;101442.75;20674831;28;20132;-76
2022/11/26 10:34:51;;;;;;;14.27;8.23;;;;;;;21.35;50.98;101436.72;20690811;28;20064;-80
2022/11/26 10:44:52;;;;;;;15.93;8.60;;;;;;;21.38;51.29;101440.03;20683530;28;20496;-78
2022/11/26 10:55:07;;;;;;;15.30;8.70;;;;;;;21.43;51.05;101442.38;20684830;28;20111;-78
2022/11/26 11:05:08;;;;;;;18.35;8.25;;;;;;;21.41;51.22;101445.13;20683579;28;20045;-78
2022/11/26 11:15:22;;;;;;;16.45;7.43;;;;;;;21.36;51.25;101438.44;20700568;28;21047;-78
2022/11/26 11:25:31;;;;;;;14.00;7.55;;;;;;;21.49;51.14;101422.72;20719254;28;20037;-84
2022/11/26 11:35:32;;;;;;;12.23;7.80;;;;;;;21.49;50.96;101410.38;20715001;28;20038;-82
2022/11/26 11:45:38;;;;;;;16.92;9.07;;;;;;;21.56;50.66;101424.91;20715710;28;20061;-82
2022/11/26 11:55:57;;;;;;;11.63;7.82;;;;;;;21.51;51.01;101410.31;20708206;28;20491;-85
2022/11/26 12:06:38;;;;;;;15.57;7.47;;;;;;;21.53;51.38;101414.53;20714443;28;20073;-86
2022/11/26 12:16:44;;;;;;;17.50;8.53;;;;;;;21.59;52.09;101406.25;20694620;28;21360;-85
2022/11/26 12:26:50;;;;;;;19.30;10.25;;;;;;;21.70;52.62;101415.28;20728973;28;20600;-86
2022/11/26 12:36:59;;;;;;;22.13;11.55;;;;;;;21.76;55.08;101412.25;20708978;28;20046;-88
2022/11/26 12:47:40;;;;;;;27.02;13.88;;;;;;;21.87;57.59;101422.09;20699839;28;20069;-84
2022/11/26 12:57:45;;;;;;;22.25;14.43;;;;;;;21.96;58.25;101421.53;20699756;28;20133;-87
2022/11/26 13:08:24;;;;;;;22.58;13.63;;;;;;;21.99;57.42;101394.94;20695571;28;20042;-87
2022/11/26 13:18:35;;;;;;;22.88;13.02;;;;;;;21.99;56.58;101404.66;20706170;28;20093;-84
2022/11/26 13:29:14;;;;;;;22.63;12.70;;;;;;;21.98;56.08;101409.06;20722802;28;20057;-84
2022/11/26 13:39:51;;;;;;;19.35;11.65;;;;;;;21.99;55.22;101417.84;20721242;28;20049;-84
2022/11/26 13:50:02;;;;;;;20.70;11.07;;;;;;;21.98;55.17;101424.88;20692259;28;20041;-85
2022/11/26 14:00:04;;;;;;;17.45;9.70;;;;;;;21.94;54.89;101436.59;20656055;28;20092;-86
2022/11/26 14:10:26;;;;;;;16.43;9.90;;;;;;;21.92;54.89;101441.09;20644405;28;20053;-85
2022/11/26 14:20:30;;;;;;;14.27;8.88;;;;;;;21.88;54.69;101444.91;20647908;28;20409;-89
2022/11/26 14:30:31;;;;;;;12.68;8.32;;;;;;;21.86;54.70;101436.22;20659209;28;20043;-85
2022/11/26 14:40:34;;;;;;;13.18;8.52;;;;;;;21.86;54.77;101438.88;20653343;28;20038;-84
2022/11/26 14:50:35;;;;;;;15.38;7.95;;;;;;;21.84;54.61;101432.88;20656939;28;20236;-81
2022/11/26 15:00:36;;;;;;;13.05;8.07;;;;;;;21.82;54.34;101450.56;20647891;28;20505;-84
2022/11/26 15:10:45;;;;;;;13.30;7.60;;;;;;;21.81;54.58;101457.59;20632919;28;20056;-86
2022/11/26 15:20:51;;;;;;;12.68;7.82;;;;;;;21.80;54.57;101468.25;20618155;28;20049;-80
2022/11/26 15:30:56;;;;;;;11.57;8.02;;;;;;;21.81;55.12;101467.31;20633654;28;20050;-81
2022/11/26 15:41:12;;;;;;;12.43;7.78;;;;;;;21.79;54.93;101472.69;20656811;28;20052;-83
2022/11/26 15:51:29;;;;;;;13.02;7.50;;;;;;;21.83;54.97;101474.19;20654229;28;20133;-81
2022/11/26 16:01:33;;;;;;;15.40;9.57;;;;;;;21.86;55.37;101467.88;20630036;28;20176;-83
2022/11/26 16:11:54;;;;;;;13.85;9.52;;;;;;;21.90;55.51;101467.59;20625134;28;20050;-83
2022/11/26 16:22:04;;;;;;;11.98;9.48;;;;;;;21.92;55.25;101470.13;20628775;28;20513;-84
2022/11/26 16:32:04;;;;;;;15.27;10.30;;;;;;;21.94;54.89;101467.41;20642163;28;20772;-83
2022/11/26 16:42:13;;;;;;;19.05;9.88;;;;;;;21.97;54.61;101461.91;20619057;28;20039;-88
2022/11/26 16:52:16;;;;;;;16.20;10.30;;;;;;;22.00;54.78;101467.00;20612876;28;20538;-88
2022/11/26 17:02:18;;;;;;;16.70;10.10;;;;;;;21.97;54.95;101456.66;20690534;28;20047;-83
2022/11/26 17:12:21;;;;;;;11.90;9.35;;;;;;;21.98;54.82;101459.19;20708006;28;20116;-84
2022/11/26 17:22:22;;;;;;;;;;;;;;;21.97;54.29;101469.84;20709332;28;20100;-87
2022/11/26 17:32:23;;;;;;;12.48;8.68;;;;;;;21.96;54.53;101483.97;20701072;28;19997;-86
2022/11/26 17:42:25;;;;;;;11.25;8.07;;;;;;;21.98;54.33;101487.34;20724317;28;20050;-84
2022/11/26 17:52:25;;;;;;;10.63;8.40;;;;;;;21.92;54.18;101483.31;20712471;28;20149;-88
2022/11/26 18:02:25;;;;;;;10.13;7.70;;;;;;;21.88;54.32;101481.81;20732997;28;20066;-84
2022/11/26 18:12:27;;;;;;;12.30;8.00;;;;;;;21.87;54.19;101472.22;20722184;28;20045;-86
2022/11/26 18:22:28;;;;;;;11.97;7.70;;;;;;;21.84;54.47;101481.16;20689272;28;20056;-84
2022/11/26 18:32:29;;;;;;;10.30;7.68;;;;;;;21.85;54.60;101482.84;20691862;28;20046;-84
2022/11/26 18:42:30;;;;;;;10.52;7.15;;;;;;;21.81;55.13;101483.16;20675824;28;20159;-83
2022/11/26 18:52:30;;;;;;;12.93;7.32;;;;;;;21.81;54.88;101472.59;20655214;28;20038;-81
2022/11/26 19:02:31;;;;;;;12.25;7.05;;;;;;;21.74;55.01;101475.63;20670385;28;20038;-81
2022/11/26 19:12:31;;;;;;;10.63;7.32;;;;;;;21.73;54.90;101491.53;20683596;28;20073;-80
2022/11/26 19:22:32;;;;;;;9.57;7.20;;;;;;;21.68;55.03;101493.59;20676808;28;20046;-80
2022/11/26 19:32:32;;;;;;;9.63;6.70;;;;;;;21.64;55.20;101500.88;20673580;28;20056;-80
2022/11/26 19:42:32;;;;;;;10.23;6.65;;;;;;;21.62;55.30;101520.31;20680866;28;20413;-80
2022/11/26 19:52:33;;;;;;;9.43;6.68;;;;;;;21.58;55.32;101520.53;20676335;28;20053;-81
2022/11/26 20:02:34;;;;;;;10.37;6.80;;;;;;;21.54;54.98;101511.06;20679939;28;20512;-82
2022/11/26 20:12:34;;;;;;;8.85;6.70;;;;;;;21.52;55.10;101514.75;20671960;28;20300;-80
2022/11/26 20:22:42;;;;;;;9.27;6.85;;;;;;;21.51;55.49;101528.88;20665531;28;20440;-79
2022/11/26 20:32:43;;;;;;;9.95;6.50;;;;;;;21.48;55.52;101522.00;20652433;28;20053;-79
2022/11/26 20:42:45;;;;;;;11.70;6.28;;;;;;;21.47;55.65;101516.81;20650006;28;20486;-80
2022/11/26 20:52:45;;;;;;;13.27;8.05;;;;;;;21.38;54.45;101518.22;20609333;28;20045;-79
2022/11/26 21:02:46;;;;;;;11.35;7.22;;;;;;;21.36;54.77;101523.59;20677455;28;20056;-78
2022/11/26 21:12:47;;;;;;;10.70;7.28;;;;;;;21.36;54.91;101520.09;20654709;28;20047;-79
2022/11/26 21:22:47;;;;;;;11.02;7.20;;;;;;;21.29;55.06;101514.38;20652573;28;20105;-78
2022/11/26 21:32:47;;;;;;;10.82;7.10;;;;;;;21.27;55.42;101521.50;20674663;28;20038;-80
2022/11/26 21:42:48;;;;;;;10.45;7.43;;;;;;;21.27;54.79;101524.13;20646566;28;20188;-79
2022/11/26 21:52:48;;;;;;;9.50;6.78;;;;;;;21.21;55.08;101543.78;20635228;28;21029;-76
2022/11/26 22:02:49;;;;;;;16.52;8.50;;;;;;;21.17;54.39;101557.25;20661305;28;20100;-79
2022/11/26 22:12:50;;;;;;;15.38;8.82;;;;;;;20.98;55.06;101552.19;20664454;28;20482;-77
2022/11/26 22:22:50;;;;;;;13.07;8.90;;;;;;;20.96;55.23;101547.03;20660578;28;20038;-77
2022/11/26 22:32:51;;;;;;;12.98;9.10;;;;;;;20.99;55.23;101538.09;20657454;28;20074;-78
2022/11/26 22:42:54;;;;;;;15.00;9.50;;;;;;;20.97;55.29;101540.81;20656381;28;20053;-78
2022/11/26 22:52:54;;;;;;;;;;;;;;;20.91;55.17;101535.88;20661587;28;20053;-77
2022/11/26 23:02:54;;;;;;;13.18;9.10;;;;;;;20.87;55.27;101529.13;20657067;28;19957;-76
2022/11/26 23:12:54;;;;;;;13.80;8.88;;;;;;;20.87;56.02;101529.97;20660918;28;20408;-74
2022/11/26 23:22:55;;;;;;;13.55;9.30;;;;;;;20.89;55.39;101528.09;20646346;28;20436;-74
2022/11/26 23:32:55;;;;;;;14.25;9.30;;;;;;;20.87;55.73;101519.44;20641622;28;20046;-74
2022/11/26 23:42:56;;;;;;;12.40;8.52;;;;;;;20.82;55.81;101510.94;20649310;28;20046;-74
2022/11/26 23:52:56;;;;;;;13.23;8.73;;;;;;;20.86;55.45;101511.63;20626298;28;20049;-74
